Barren Springs, VA (24313)

12:33 AM EDT on October 02, 2014 (GMT -0400)
Conners Valley Road, State Rd. 726 | Change Station
CLOSE
Current Station
Personal Weather Station
Location: Max Meadows, VA
Elevation: 665 m
Nearby Weather Stations

Elev 665 m 36.98 °N, 80.85 °W | Updated 5 minutes ago

Partly Cloudy
Partly Cloudy
16.3 °C
Feels Like 16.3 °C
N
0.0
Wind Variable Wind from North
Gusts 0.0 km/h

Today
High -- | Low -- °C
--% Chance of Precip.
Yesterday
High -- | Low -- °C
Precip. -- mm
7:19 AM 7:05 PM
First Quarter, 54% visible
Pressure 1020 hPa
Visibility 16.1 kilometers
Clouds Scattered Clouds 1828 m
Dew Point 14 °C
Humidity 88%
Rainfall 0 mm
Snow Depth Not available.
UV 0 out of 12
Pollen 3.80 out of 12
Air Quality Not available.
Flu Activity Not available.
METAR KHLX 020415Z AUTO 21004KT 10SM SCT060 15/14 A3013 RMK AO2 T01470138

More Conditions Fewer Conditions

Pressure 1020 hPa
Visibility 16.1 kilometers
Clouds Scattered Clouds 1828 m
Dew Point 14 °C
Humidity 88%
Rainfall 0 mm
Snow Depth Not available.
UV 0 out of 12
Pollen 3.80 out of 12
Air Quality Not available.
Flu Activity Not available.
METAR KHLX 020415Z AUTO 21004KT 10SM SCT060 15/14 A3013 RMK AO2 T01470138

More Conditions Fewer Conditions

10-Day Weather Forecast

Almanac

Astronomy

Oct. 02, 2014 Rise Set
Actual Time 7:19 AM EDT 7:05 PM EDT
Civil Twilight 6:53 AM EDT 7:30 PM EDT
Nautical Twilight 6:23 AM EDT 8:00 PM EDT
Astronomical Twilight 5:53 AM EDT 8:31 PM EDT
Moon 3:02 PM EDT 12:42 AM EDT
Length of Visible Light 12h 37m
Length of Day
11h 45m
Tomorrow will be 2m 20s shorter.
First Quarter, 54% of the Moon is Illuminated
Today
First Quarter
Oct 8
Full
Oct 15
Last Quarter
Oct 23
New
Oct 30
First Quarter

Today's Extremes

State Highs State Lows

Community

WunderPhotos

Upload Photos

1,758,187 photos uploaded!

Nearby

Snow Depth

Station Depth Elevation
No new snow has been reported.

Earthquake Activity

City Distance Mag. Time & Date
No recent earthquake activity has been reported nearby.
Minimum magnitude displayed is 2.5.

Coastal Water Temperatures

Place Temperature
No Stations Reporting

Nearby Weather Stations